You are not logged in, Click here to log in
Governador José Richa Airport / SBLO Londrina
ICAO: SBLO Country: Londrina
Latitude: -23.3336 Longitude: -51.1301
Total Arrivals: 1 Total Departures: 1
Latest Arrival: AD57982 (SBRJ-SBLO)Stone. Chang Latest Departure: AD24252 (SBLO-SBGL)Stone. Chang
Scenery:
METAR : SBLO 080300Z 11007KT CAVOK 23/16 Q1014

Governador José Richa Airport